Time;durP1;ratioP1;P1;durP2;ratioP2;P2;SDS_P1;SDS_P2;PMS_P1;PMS_P2;Temp;Humidity;BMP_temperature;BMP_pressure;BME280_temperature;BME280_humidity;BME280_pressure;Samples;Min_cycle;Max_cycle;Signal;HPM_P1;HPM_P2
2021/01/21 01:46:16;;;;;;;3.43;1.97;;;;;;;;;;6320171;22;20421;-53
2021/01/21 02:55:21;;;;;;;6.23;1.33;;;;;;;;;;6392765;22;20450;-52
2021/01/21 03:06:31;;;;;;;3.23;1.73;;;;;;;;;;6367609;22;20277;-57
2021/01/21 03:21:21;;;;;;;8.13;1.53;;;;;;;;;;6385703;22;20414;-43
2021/01/21 03:23:52;;;;;;;3.70;1.80;;;;;;;;;;6396220;22;20403;-51
2021/01/21 03:26:19;;;;;;;2.90;1.20;;;;;;;;;;6398076;22;20481;-50
2021/01/21 03:28:46;;;;;;;5.13;1.40;;;;;;;;;;6396876;22;20429;-55
2021/01/21 03:31:12;;;;;;;4.03;1.03;;;;;;;;;;6395758;22;20422;-51
2021/01/21 03:33:42;;;;;;;3.13;1.50;;;;;;;;;;6395693;22;20424;-52
2021/01/21 03:41:39;;;;;;;4.00;1.57;;;;;;;;;;6396407;22;20435;-47
2021/01/21 03:44:06;;;;;;;3.73;1.40;;;;;;;;;;6395998;22;20206;-52
2021/01/21 03:46:48;;;;;;;2.47;1.00;;;;;;;;;;6396594;22;20384;-48
2021/01/21 03:49:15;;;;;;;2.33;1.40;;;;;;;;;;6396257;22;20406;-54
2021/01/21 03:51:42;;;;;;;3.03;1.10;;;;;;;;;;6396454;22;20418;-54
2021/01/21 03:54:16;;;;;;;3.20;1.47;;;;;;;;;;6395767;22;20447;-50
2021/01/21 03:56:44;;;;;;;3.03;1.67;;;;;;;;;;6396183;22;20409;-51
2021/01/21 03:59:11;;;;;;;2.83;1.27;;;;;;;;;;6396169;22;20400;-55
2021/01/21 04:01:43;;;;;;;2.97;1.80;;;;;;;;;;6396790;22;20388;-49
2021/01/21 04:04:11;;;;;;;4.60;1.10;;;;;;;;;;6396605;22;20465;-52
2021/01/21 04:06:38;;;;;;;4.43;1.40;;;;;;;;;;6396611;22;20438;-55
2021/01/21 04:09:12;;;;;;;2.03;0.90;;;;;;;;;;6395978;22;20419;-53
2021/01/21 04:11:38;;;;;;;2.80;1.10;;;;;;;;;;6396535;22;20495;-54
2021/01/21 04:14:06;;;;;;;12.13;1.30;;;;;;;;;;6396890;22;20415;-56
2021/01/21 04:16:36;;;;;;;3.60;0.80;;;;;;;;;;6396238;22;20395;-55
2021/01/21 04:19:03;;;;;;;3.87;1.63;;;;;;;;;;6395920;22;20416;-53
2021/01/21 04:21:31;;;;;;;2.73;1.00;;;;;;;;;;6396381;22;20407;-49
2021/01/21 04:26:58;;;;;;;5.10;1.10;;;;;;;;;;6393873;22;20463;-54
2021/01/21 04:32:21;;;;;;;3.17;0.87;;;;;;;;;;6394652;22;20423;-54
2021/01/21 04:34:48;;;;;;;2.40;1.03;;;;;;;;;;6395841;22;20468;-57
2021/01/21 04:37:15;;;;;;;2.10;0.90;;;;;;;;;;6396614;22;20392;-49
2021/01/21 04:39:43;;;;;;;2.30;1.03;;;;;;;;;;6396432;22;20417;-49
2021/01/21 04:42:10;;;;;;;1.90;0.90;;;;;;;;;;6395886;22;20436;-51
2021/01/21 04:44:38;;;;;;;1.87;0.80;;;;;;;;;;6396638;22;20423;-54
2021/01/21 04:47:07;;;;;;;2.30;0.80;;;;;;;;;;6396887;22;20459;-55
2021/01/21 04:49:43;;;;;;;2.40;0.90;;;;;;;;;;6396788;22;20392;-54
2021/01/21 04:52:34;;;;;;;3.20;0.90;;;;;;;;;;6396042;22;20401;-52
2021/01/21 04:55:03;;;;;;;3.20;1.23;;;;;;;;;;6395880;22;20430;-50
2021/01/21 04:57:34;;;;;;;2.30;1.00;;;;;;;;;;6396049;22;20416;-48
2021/01/21 05:00:20;;;;;;;4.07;1.73;;;;;;;;;;6396054;22;20449;-56
2021/01/21 05:02:49;;;;;;;3.77;1.03;;;;;;;;;;6396451;22;20444;-56
2021/01/21 05:05:16;;;;;;;5.57;0.90;;;;;;;;;;6395718;22;20415;-49
2021/01/21 05:07:43;;;;;;;3.67;1.30;;;;;;;;;;6395296;22;20388;-50
2021/01/21 05:10:12;;;;;;;2.00;0.90;;;;;;;;;;6395861;22;20361;-54
2021/01/21 05:12:46;;;;;;;1.70;0.80;;;;;;;;;;6396168;22;20408;-52
2021/01/21 05:15:13;;;;;;;2.87;1.10;;;;;;;;;;6396773;22;20454;-53
2021/01/21 05:17:42;;;;;;;2.00;0.90;;;;;;;;;;6397215;22;20417;-49
2021/01/21 05:20:11;;;;;;;7.23;2.40;;;;;;;;;;6396327;22;20419;-53
2021/01/21 05:22:38;;;;;;;1.90;0.90;;;;;;;;;;6396006;22;20405;-50
2021/01/21 05:25:40;;;;;;;2.27;1.10;;;;;;;;;;6395455;22;20403;-53
2021/01/21 05:28:07;;;;;;;2.40;0.93;;;;;;;;;;6395462;22;20403;-51
2021/01/21 05:30:35;;;;;;;3.13;1.13;;;;;;;;;;6395410;22;20399;-57
2021/01/21 05:33:24;;;;;;;3.83;0.87;;;;;;;;;;6397609;22;20419;-53
2021/01/21 05:35:53;;;;;;;4.37;1.40;;;;;;;;;;6397525;22;20454;-46
2021/01/21 05:38:21;;;;;;;2.40;1.20;;;;;;;;;;6396665;22;20416;-50
2021/01/21 05:40:48;;;;;;;2.17;0.90;;;;;;;;;;6396779;22;20412;-52
2021/01/21 05:43:15;;;;;;;1.77;0.80;;;;;;;;;;6397092;22;20470;-56
2021/01/21 05:45:45;;;;;;;2.40;0.80;;;;;;;;;;6397238;22;20418;-58
2021/01/21 05:48:13;;;;;;;2.23;0.93;;;;;;;;;;6397009;22;20412;-50
2021/01/21 05:50:40;;;;;;;3.43;1.10;;;;;;;;;;6397735;22;20420;-53
2021/01/21 05:53:19;;;;;;;6.13;1.15;;;;;;;;;;6397689;22;20419;-53
2021/01/21 05:55:46;;;;;;;3.85;1.17;;;;;;;;;;6397560;22;20287;-50
2021/01/21 05:58:15;;;;;;;2.72;0.95;;;;;;;;;;6398116;22;20187;-52
2021/01/21 06:01:00;;;;;;;5.35;1.10;;;;;;;;;;6397203;22;20258;-58
2021/01/21 06:03:27;;;;;;;4.47;0.98;;;;;;;;;;6397364;22;20202;-56
2021/01/21 06:05:57;;;;;;;4.63;1.10;;;;;;;;;;6397624;22;20230;-57
2021/01/21 06:08:25;;;;;;;4.93;1.13;;;;;;;;;;6397627;22;20187;-53
2021/01/21 06:10:52;;;;;;;6.72;1.50;;;;;;;;;;6396743;22;20317;-56
2021/01/21 06:13:31;;;;;;;2.45;0.93;;;;;;;;;;6396608;22;20159;-50
2021/01/21 06:16:01;;;;;;;2.60;0.93;;;;;;;;;;6397357;22;20190;-49
2021/01/21 06:18:30;;;;;;;6.00;1.40;;;;;;;;;;6398082;22;20165;-55
2021/01/21 06:21:10;;;;;;;3.00;1.90;;;;;;;;;;6398147;22;20171;-51
2021/01/21 06:23:43;;;;;;;2.30;1.10;;;;;;;;;;6397584;22;20168;-54
2021/01/21 06:26:11;;;;;;;4.38;1.23;;;;;;;;;;6396917;22;20177;-50
2021/01/21 06:28:39;;;;;;;2.50;1.20;;;;;;;;;;6397141;22;20196;-58
2021/01/21 06:31:07;;;;;;;4.03;1.38;;;;;;;;;;6396808;22;20176;-53
2021/01/21 06:33:41;;;;;;;4.15;1.35;;;;;;;;;;6396575;22;20154;-46
2021/01/21 06:36:09;;;;;;;2.70;1.00;;;;;;;;;;6396956;22;20190;-54
2021/01/21 06:38:39;;;;;;;4.05;1.17;;;;;;;;;;6396451;22;20182;-46
2021/01/21 06:41:09;;;;;;;4.95;1.35;;;;;;;;;;6397076;22;20183;-54
2021/01/21 06:43:37;;;;;;;2.85;1.20;;;;;;;;;;6396176;22;20202;-49
2021/01/21 06:46:04;;;;;;;2.42;1.20;;;;;;;;;;6396171;22;20328;-55
2021/01/21 06:48:49;;;;;;;6.03;1.30;;;;;;;;;;6396859;22;20180;-55
2021/01/21 06:51:17;;;;;;;7.53;1.67;;;;;;;;;;6395970;22;20211;-51
2021/01/21 06:53:44;;;;;;;6.85;1.88;;;;;;;;;;6397418;22;20205;-46
2021/01/21 06:56:19;;;;;;;5.00;1.58;;;;;;;;;;6396462;22;20262;-50
2021/01/21 06:58:47;;;;;;;3.95;1.83;;;;;;;;;;6397124;22;20219;-48
2021/01/21 07:01:32;;;;;;;12.45;1.50;;;;;;;;;;6396046;22;20197;-53
2021/01/21 07:03:59;;;;;;;5.45;2.13;;;;;;;;;;6396186;22;20172;-56
2021/01/21 07:06:26;;;;;;;7.50;3.00;;;;;;;;;;6396215;22;20176;-52
2021/01/21 07:09:29;;;;;;;5.97;1.35;;;;;;;;;;6396852;22;20224;-52
2021/01/21 07:11:58;;;;;;;8.55;1.90;;;;;;;;;;6396654;22;20181;-58
2021/01/21 07:14:27;;;;;;;2.47;0.90;;;;;;;;;;6395926;22;20211;-50
2021/01/21 07:17:17;;;;;;;3.63;1.17;;;;;;;;;;6396501;22;20183;-49
2021/01/21 07:19:48;;;;;;;4.07;1.20;;;;;;;;;;6396588;22;20190;-50
2021/01/21 07:22:18;;;;;;;3.00;1.35;;;;;;;;;;6395452;22;20179;-55
2021/01/21 07:24:51;;;;;;;3.60;1.20;;;;;;;;;;6394867;22;20209;-59
2021/01/21 07:27:19;;;;;;;3.15;1.35;;;;;;;;;;6395212;22;20180;-56
2021/01/21 07:29:50;;;;;;;3.38;0.93;;;;;;;;;;6395614;22;20194;-48
2021/01/21 07:32:27;;;;;;;4.88;1.10;;;;;;;;;;6395974;22;20208;-53
2021/01/21 07:34:54;;;;;;;7.35;1.35;;;;;;;;;;6396596;22;20191;-51
2021/01/21 07:37:26;;;;;;;2.58;0.95;;;;;;;;;;6395869;22;20181;-53
2021/01/21 07:40:04;;;;;;;3.45;1.70;;;;;;;;;;6395428;22;20180;-48
2021/01/21 07:42:53;;;;;;;2.55;0.90;;;;;;;;;;6396558;22;20174;-52
2021/01/21 07:45:51;;;;;;;2.40;1.00;;;;;;;;;;6397418;22;20175;-47
2021/01/21 07:48:19;;;;;;;4.97;1.45;;;;;;;;;;6396739;22;20168;-48
2021/01/21 07:50:47;;;;;;;3.50;1.33;;;;;;;;;;6395769;22;20191;-50
2021/01/21 07:53:21;;;;;;;2.97;1.05;;;;;;;;;;6395195;22;20260;-56
2021/01/21 07:55:49;;;;;;;5.15;1.38;;;;;;;;;;6395605;22;20198;-59
2021/01/21 07:58:17;;;;;;;2.70;0.85;;;;;;;;;;6395101;22;20148;-49
2021/01/21 08:00:46;;;;;;;5.32;0.90;;;;;;;;;;6394581;22;20171;-54
2021/01/21 08:03:13;;;;;;;5.60;1.20;;;;;;;;;;6395153;22;20166;-51
2021/01/21 08:05:40;;;;;;;4.63;1.10;;;;;;;;;;6396361;22;20238;-52
2021/01/21 08:08:08;;;;;;;10.15;1.00;;;;;;;;;;6394390;22;20225;-51
2021/01/21 08:10:35;;;;;;;2.60;1.17;;;;;;;;;;6395036;22;20165;-57
2021/01/21 08:13:22;;;;;;;3.70;1.20;;;;;;;;;;6395451;22;20194;-53
2021/01/21 08:15:53;;;;;;;2.60;0.73;;;;;;;;;;6394451;22;20214;-46
2021/01/21 08:18:20;;;;;;;2.85;0.90;;;;;;;;;;6394006;22;20449;-54
2021/01/21 08:20:47;;;;;;;2.20;0.80;;;;;;;;;;6394317;22;20180;-51
2021/01/21 08:23:15;;;;;;;3.65;1.05;;;;;;;;;;6394136;22;20185;-54
2021/01/21 08:25:43;;;;;;;5.10;1.50;;;;;;;;;;6394294;22;20201;-49
2021/01/21 08:28:19;;;;;;;1.70;0.75;;;;;;;;;;6367415;22;20219;-55
2021/01/21 08:30:46;;;;;;;3.90;1.25;;;;;;;;;;6393362;22;20241;-51
2021/01/21 08:33:17;;;;;;;11.23;1.63;;;;;;;;;;6394411;22;20174;-53
2021/01/21 08:35:52;;;;;;;5.88;1.83;;;;;;;;;;6393843;22;20197;-47
2021/01/21 08:38:21;;;;;;;6.60;3.40;;;;;;;;;;6394496;22;20186;-53
2021/01/21 08:40:48;;;;;;;6.20;2.28;;;;;;;;;;6394943;22;20196;-57
2021/01/21 08:46:19;;;;;;;5.60;1.27;;;;;;;;;;6395199;22;20173;-50
2021/01/21 08:48:48;;;;;;;3.47;1.15;;;;;;;;;;6394960;22;20221;-51
2021/01/21 08:51:27;;;;;;;5.88;1.30;;;;;;;;;;6388500;22;20217;-55
2021/01/21 08:54:09;;;;;;;4.63;1.70;;;;;;;;;;6395053;22;20205;-53
2021/01/21 08:56:38;;;;;;;2.95;1.20;;;;;;;;;;6393946;22;20260;-57
2021/01/21 08:59:25;;;;;;;3.38;1.10;;;;;;;;;;6393935;22;20201;-52
2021/01/21 09:01:53;;;;;;;3.35;1.05;;;;;;;;;;6395242;22;20272;-51
2021/01/21 09:04:28;;;;;;;7.40;3.95;;;;;;;;;;6393234;22;20176;-57
2021/01/21 09:06:56;;;;;;;2.40;1.20;;;;;;;;;;6394387;22;20228;-54
2021/01/21 09:09:39;;;;;;;4.15;1.00;;;;;;;;;;6393608;22;20157;-56
2021/01/21 09:12:14;;;;;;;4.18;1.90;;;;;;;;;;6394714;22;20163;-51
2021/01/21 09:15:05;;;;;;;3.38;1.30;;;;;;;;;;6394214;22;20196;-54
2021/01/21 09:17:32;;;;;;;6.55;1.25;;;;;;;;;;6394253;22;20189;-56
2021/01/21 09:20:02;;;;;;;3.35;1.23;;;;;;;;;;6394410;22;20165;-52
2021/01/21 09:22:38;;;;;;;4.97;1.80;;;;;;;;;;6394463;22;20186;-54
2021/01/21 09:25:07;;;;;;;2.67;1.05;;;;;;;;;;6394999;22;20159;-51
2021/01/21 09:27:54;;;;;;;5.85;2.45;;;;;;;;;;6394148;22;20162;-53
2021/01/21 09:30:21;;;;;;;3.38;1.40;;;;;;;;;;6393675;22;20176;-50
2021/01/21 09:32:49;;;;;;;4.25;1.05;;;;;;;;;;6393870;22;20174;-50
2021/01/21 09:35:37;;;;;;;5.60;1.52;;;;;;;;;;6394299;22;20200;-50
2021/01/21 09:38:04;;;;;;;2.45;1.00;;;;;;;;;;6394768;22;20194;-58
2021/01/21 09:40:32;;;;;;;2.80;1.17;;;;;;;;;;6393477;22;20245;-51
2021/01/21 09:43:02;;;;;;;2.60;1.10;;;;;;;;;;6394238;22;20188;-50
2021/01/21 09:45:35;;;;;;;5.03;1.10;;;;;;;;;;6394071;22;20160;-53
2021/01/21 09:48:03;;;;;;;2.78;1.20;;;;;;;;;;6395613;22;20196;-51
2021/01/21 09:51:03;;;;;;;6.97;1.40;;;;;;;;;;6395949;22;20165;-57
2021/01/21 09:53:31;;;;;;;4.10;0.98;;;;;;;;;;6396031;22;20177;-51
2021/01/21 09:55:58;;;;;;;3.78;1.10;;;;;;;;;;6394305;22;20189;-50
2021/01/21 09:58:25;;;;;;;5.20;1.05;;;;;;;;;;6394491;22;20204;-49
2021/01/21 10:00:52;;;;;;;2.70;0.90;;;;;;;;;;6393375;22;20184;-54
2021/01/21 10:03:29;;;;;;;4.15;1.35;;;;;;;;;;6393948;22;20156;-50
2021/01/21 10:05:56;;;;;;;3.90;1.30;;;;;;;;;;6392918;22;20181;-51
2021/01/21 10:08:23;;;;;;;8.02;1.60;;;;;;;;;;6394006;22;20168;-54
2021/01/21 10:11:06;;;;;;;2.90;1.30;;;;;;;;;;6393409;22;20177;-58
2021/01/21 10:13:33;;;;;;;2.78;1.17;;;;;;;;;;6393752;22;20198;-48
2021/01/21 10:15:59;;;;;;;3.75;1.20;;;;;;;;;;6392092;22;20200;-51
2021/01/21 10:18:26;;;;;;;4.75;1.77;;;;;;;;;;6394788;22;20159;-53
2021/01/21 10:20:53;;;;;;;3.67;1.25;;;;;;;;;;6395896;22;20168;-52
2021/01/21 10:23:20;;;;;;;2.70;1.10;;;;;;;;;;6396273;22;20190;-53
2021/01/21 10:25:52;;;;;;;8.32;1.52;;;;;;;;;;6395843;22;20180;-49
2021/01/21 10:28:20;;;;;;;3.67;1.23;;;;;;;;;;6395594;22;20189;-57
2021/01/21 10:30:52;;;;;;;4.68;1.50;;;;;;;;;;6368926;22;20177;-54
2021/01/21 10:33:33;;;;;;;6.65;1.10;;;;;;;;;;6394931;22;20174;-57
2021/01/21 10:36:00;;;;;;;4.95;1.92;;;;;;;;;;6394584;22;20204;-52
2021/01/21 10:38:27;;;;;;;3.88;1.00;;;;;;;;;;6395139;22;20171;-50
2021/01/21 10:41:00;;;;;;;3.75;1.13;;;;;;;;;;6395597;22;20173;-54
2021/01/21 10:43:28;;;;;;;5.65;1.40;;;;;;;;;;6396129;22;20192;-59
2021/01/21 10:45:55;;;;;;;4.72;1.52;;;;;;;;;;6395888;22;20180;-48
2021/01/21 10:48:47;;;;;;;9.07;2.63;;;;;;;;;;6395839;22;20205;-47
2021/01/21 10:51:14;;;;;;;7.40;1.27;;;;;;;;;;6395987;22;20457;-54
2021/01/21 10:53:40;;;;;;;6.78;1.27;;;;;;;;;;6396148;22;20233;-49
2021/01/21 10:56:07;;;;;;;3.45;1.25;;;;;;;;;;6396288;22;20212;-51
2021/01/21 10:58:35;;;;;;;4.68;1.52;;;;;;;;;;6394683;22;20346;-52
2021/01/21 11:01:02;;;;;;;3.85;1.00;;;;;;;;;;6393902;22;20228;-53
2021/01/21 11:03:29;;;;;;;7.25;1.77;;;;;;;;;;6393983;22;20184;-51
2021/01/21 11:05:56;;;;;;;7.32;2.53;;;;;;;;;;6396037;22;20170;-52
2021/01/21 11:08:23;;;;;;;5.07;1.92;;;;;;;;;;6394647;22;20184;-53
2021/01/21 11:10:51;;;;;;;8.02;1.55;;;;;;;;;;6396141;22;20287;-52
2021/01/21 11:13:18;;;;;;;4.40;1.63;;;;;;;;;;6395732;22;20557;-56
2021/01/21 11:15:46;;;;;;;4.93;1.90;;;;;;;;;;6394999;22;20213;-49
2021/01/21 11:18:15;;;;;;;4.82;1.27;;;;;;;;;;6395360;22;20162;-56
2021/01/21 11:20:44;;;;;;;2.50;1.33;;;;;;;;;;6395447;22;20521;-51
2021/01/21 11:23:11;;;;;;;4.50;1.40;;;;;;;;;;6395129;22;20183;-53
2021/01/21 11:25:38;;;;;;;3.28;1.00;;;;;;;;;;6395570;22;20177;-48
2021/01/21 11:30:41;;;;;;;3.50;1.13;;;;;;;;;;6334962;22;20189;-51
2021/01/21 11:33:08;;;;;;;5.97;1.20;;;;;;;;;;6363025;22;20192;-60
2021/01/21 11:35:41;;;;;;;4.05;1.10;;;;;;;;;;6363670;22;20186;-53
2021/01/21 11:38:16;;;;;;;4.05;1.10;;;;;;;;;;6363566;22;20166;-56
2021/01/21 11:40:44;;;;;;;3.35;0.90;;;;;;;;;;6363504;22;20408;-53
2021/01/21 11:43:12;;;;;;;4.63;1.10;;;;;;;;;;6363628;22;20171;-53
2021/01/21 11:45:41;;;;;;;2.42;0.98;;;;;;;;;;6335730;22;20235;-48
2021/01/21 11:48:10;;;;;;;4.53;1.02;;;;;;;;;;6362818;22;20182;-52
2021/01/21 11:50:53;;;;;;;8.00;1.25;;;;;;;;;;6362471;22;20268;-54
2021/01/21 11:53:20;;;;;;;2.88;1.20;;;;;;;;;;6363159;22;20182;-54
2021/01/21 11:55:46;;;;;;;3.93;1.43;;;;;;;;;;6364168;22;20232;-51
2021/01/21 11:58:14;;;;;;;4.00;1.75;;;;;;;;;;6362837;22;20413;-54
2021/01/21 12:00:40;;;;;;;9.88;1.80;;;;;;;;;;6362842;22;20185;-53
2021/01/21 12:03:07;;;;;;;4.40;2.20;;;;;;;;;;6363278;22;20182;-48
2021/01/21 12:06:07;;;;;;;8.82;2.78;;;;;;;;;;6362797;22;20464;-54
2021/01/21 12:08:35;;;;;;;5.80;1.50;;;;;;;;;;6362246;22;20182;-54
2021/01/21 12:11:04;;;;;;;4.13;1.50;;;;;;;;;;6363039;22;20425;-51
2021/01/21 12:13:37;;;;;;;2.65;1.40;;;;;;;;;;6363000;22;20241;-52
2021/01/21 12:16:04;;;;;;;3.72;1.40;;;;;;;;;;6362701;22;20198;-51
2021/01/21 12:18:31;;;;;;;3.77;2.10;;;;;;;;;;6362968;22;20178;-50
2021/01/21 12:21:33;;;;;;;3.90;1.17;;;;;;;;;;6363779;22;20401;-57
2021/01/21 12:24:10;;;;;;;8.27;1.87;;;;;;;;;;6385011;22;20458;-55
2021/01/21 12:26:39;;;;;;;3.93;1.30;;;;;;;;;;6394347;22;20423;-45
2021/01/21 12:29:06;;;;;;;5.90;1.53;;;;;;;;;;6394485;22;20461;-52
2021/01/21 12:31:32;;;;;;;7.00;1.57;;;;;;;;;;6395579;22;20379;-56
2021/01/21 12:37:03;;;;;;;6.25;1.70;;;;;;;;;;6395842;22;20451;-49
2021/01/21 12:39:31;;;;;;;5.67;1.20;;;;;;;;;;6396057;22;20176;-51
2021/01/21 12:41:59;;;;;;;5.13;1.30;;;;;;;;;;6395873;22;20395;-55
2021/01/21 12:44:27;;;;;;;6.27;2.40;;;;;;;;;;6394489;22;20527;-59
2021/01/21 12:46:54;;;;;;;6.90;1.63;;;;;;;;;;6395079;22;20428;-51
2021/01/21 12:49:35;;;;;;;5.45;1.85;;;;;;;;;;6393896;22;20422;-53
2021/01/21 12:52:02;;;;;;;6.30;3.47;;;;;;;;;;6394252;22;20191;-58
2021/01/21 12:54:49;;;;;;;6.80;1.45;;;;;;;;;;6394505;22;20204;-54
2021/01/21 12:57:24;;;;;;;7.55;1.83;;;;;;;;;;6393323;22;20186;-50
2021/01/21 12:59:51;;;;;;;4.77;1.17;;;;;;;;;;6394021;22;20165;-57
2021/01/21 13:02:18;;;;;;;4.35;1.38;;;;;;;;;;6394085;22;20423;-56
2021/01/21 13:05:08;;;;;;;3.13;1.23;;;;;;;;;;6394255;22;20178;-57
2021/01/21 13:07:35;;;;;;;5.23;1.97;;;;;;;;;;6393978;22;20488;-55
2021/01/21 13:10:02;;;;;;;9.80;1.73;;;;;;;;;;6366139;22;20412;-54
2021/01/21 13:12:35;;;;;;;7.63;2.10;;;;;;;;;;6392745;22;20416;-52
2021/01/21 13:15:02;;;;;;;3.88;2.10;;;;;;;;;;6392392;22;20445;-56
2021/01/21 13:17:29;;;;;;;8.53;2.07;;;;;;;;;;6393286;22;20181;-53
2021/01/21 13:19:55;;;;;;;3.97;1.40;;;;;;;;;;6393135;22;20479;-58
2021/01/21 13:22:22;;;;;;;5.00;1.10;;;;;;;;;;6392577;22;20392;-50
2021/01/21 13:25:03;;;;;;;5.40;1.73;;;;;;;;;;6393154;22;20371;-58
2021/01/21 13:27:33;;;;;;;5.47;1.43;;;;;;;;;;6392090;22;20397;-52
2021/01/21 13:30:02;;;;;;;4.90;1.10;;;;;;;;;;6392693;22;20495;-55
2021/01/21 13:32:40;;;;;;;3.67;1.63;;;;;;;;;;6392614;22;20858;-51
2021/01/21 13:35:15;;;;;;;6.82;1.50;;;;;;;;;;6386126;22;20453;-54
2021/01/21 13:40:31;;;;;;;4.43;1.00;;;;;;;;;;6387402;22;20548;-52
2021/01/21 13:45:52;;;;;;;4.87;1.57;;;;;;;;;;6389812;22;20459;-52
2021/01/21 13:48:25;;;;;;;3.90;1.27;;;;;;;;;;6389125;22;20446;-54
2021/01/21 13:50:56;;;;;;;3.58;1.35;;;;;;;;;;6390108;22;20360;-57
2021/01/21 13:53:38;;;;;;;7.70;2.07;;;;;;;;;;6390443;22;20466;-51
2021/01/21 13:56:14;;;;;;;4.40;1.20;;;;;;;;;;6327237;22;20532;-52
2021/01/21 13:59:03;;;;;;;3.90;1.30;;;;;;;;;;6326431;22;20424;-52
2021/01/21 14:01:36;;;;;;;4.73;1.80;;;;;;;;;;6325859;22;20473;-53
2021/01/21 14:04:03;;;;;;;5.70;1.27;;;;;;;;;;6327769;22;20451;-54
2021/01/21 14:06:32;;;;;;;3.27;1.20;;;;;;;;;;6324213;22;20417;-49
2021/01/21 14:09:00;;;;;;;3.10;0.95;;;;;;;;;;6356079;22;20472;-49
2021/01/21 14:11:28;;;;;;;6.37;1.30;;;;;;;;;;6392848;22;20180;-49
2021/01/21 14:14:09;;;;;;;6.40;1.47;;;;;;;;;;6392489;22;20423;-55
2021/01/21 14:16:38;;;;;;;6.40;1.63;;;;;;;;;;6393663;22;20437;-53
2021/01/21 14:19:25;;;;;;;5.28;1.65;;;;;;;;;;6393562;22;20184;-52
2021/01/21 14:21:55;;;;;;;5.40;1.50;;;;;;;;;;6392739;22;20201;-53
2021/01/21 14:24:22;;;;;;;4.53;1.17;;;;;;;;;;6392617;22;20441;-57
2021/01/21 14:26:49;;;;;;;13.83;2.03;;;;;;;;;;6395445;22;20411;-45
2021/01/21 14:29:20;;;;;;;6.93;1.70;;;;;;;;;;6392188;22;20461;-58
2021/01/21 14:32:06;;;;;;;3.97;0.93;;;;;;;;;;6394564;22;20158;-52
2021/01/21 14:34:37;;;;;;;5.70;1.40;;;;;;;;;;6393992;22;20431;-49
2021/01/21 14:37:05;;;;;;;7.53;2.00;;;;;;;;;;6391914;22;20422;-45
2021/01/21 14:39:38;;;;;;;3.00;0.97;;;;;;;;;;6392523;22;20421;-54
2021/01/21 14:42:12;;;;;;;6.07;1.63;;;;;;;;;;6392982;22;20420;-58
2021/01/21 14:44:42;;;;;;;5.23;1.80;;;;;;;;;;6390483;22;20388;-51
2021/01/21 14:47:16;;;;;;;6.43;2.20;;;;;;;;;;6391135;22;20388;-53
2021/01/21 14:49:44;;;;;;;6.80;1.33;;;;;;;;;;6391865;22;20181;-54
2021/01/21 14:52:11;;;;;;;3.38;1.20;;;;;;;;;;6392611;22;20165;-57
2021/01/21 14:54:40;;;;;;;11.45;1.27;;;;;;;;;;6393600;22;20189;-54
2021/01/21 14:57:08;;;;;;;11.63;4.60;;;;;;;;;;6392122;22;20201;-54
2021/01/21 14:59:38;;;;;;;7.00;2.00;;;;;;;;;;6391475;22;20181;-54
2021/01/21 15:02:07;;;;;;;4.90;1.20;;;;;;;;;;6391778;22;20179;-54
2021/01/21 15:04:37;;;;;;;6.43;1.40;;;;;;;;;;6393324;22;20388;-59
2021/01/21 15:07:30;;;;;;;2.63;1.00;;;;;;;;;;6391983;22;20419;-49
2021/01/21 15:09:58;;;;;;;4.30;1.80;;;;;;;;;;6394274;22;20322;-53
2021/01/21 15:12:26;;;;;;;5.97;1.80;;;;;;;;;;6393207;22;20411;-57
2021/01/21 15:15:01;;;;;;;7.28;2.13;;;;;;;;;;6394191;22;20330;-53
2021/01/21 15:17:38;;;;;;;7.30;2.38;;;;;;;;;;6394423;22;20187;-51
2021/01/21 15:20:05;;;;;;;9.40;2.25;;;;;;;;;;6394653;22;20188;-54
2021/01/21 15:22:49;;;;;;;5.03;1.90;;;;;;;;;;6394603;22;20162;-51
2021/01/21 15:25:21;;;;;;;7.57;2.28;;;;;;;;;;6394177;22;20445;-48
2021/01/21 15:27:59;;;;;;;12.95;2.55;;;;;;;;;;6394918;22;20154;-56
2021/01/21 15:30:27;;;;;;;7.10;1.90;;;;;;;;;;6393050;22;20185;-57
2021/01/21 15:32:54;;;;;;;8.23;2.37;;;;;;;;;;6393224;22;20195;-54
2021/01/21 15:35:21;;;;;;;16.38;2.67;;;;;;;;;;6394033;22;20641;-52
2021/01/21 15:37:52;;;;;;;6.47;2.15;;;;;;;;;;6393708;22;20195;-55
2021/01/21 15:40:21;;;;;;;5.85;1.30;;;;;;;;;;6394258;22;20181;-55
2021/01/21 15:42:47;;;;;;;9.98;1.70;;;;;;;;;;6394028;22;20187;-48
2021/01/21 15:45:15;;;;;;;4.13;1.40;;;;;;;;;;6394279;22;20176;-60
2021/01/21 15:47:41;;;;;;;7.03;1.70;;;;;;;;;;6393124;22;20168;-53
2021/01/21 15:50:14;;;;;;;7.97;1.85;;;;;;;;;;6394250;22;20201;-51
2021/01/21 15:52:42;;;;;;;2.65;1.10;;;;;;;;;;6393558;22;20168;-53
2021/01/21 15:55:09;;;;;;;2.97;1.40;;;;;;;;;;6394193;22;20173;-50
2021/01/21 15:57:42;;;;;;;6.57;1.92;;;;;;;;;;6393816;22;20209;-56
2021/01/21 16:00:09;;;;;;;3.53;1.30;;;;;;;;;;6392892;22;20338;-54
2021/01/21 16:02:40;;;;;;;6.87;2.10;;;;;;;;;;6393545;22;20169;-55
2021/01/21 16:05:09;;;;;;;7.38;1.85;;;;;;;;;;6394092;22;20407;-51
2021/01/21 16:07:36;;;;;;;4.07;1.55;;;;;;;;;;6388777;22;20208;-52
2021/01/21 16:10:04;;;;;;;6.22;1.40;;;;;;;;;;6387946;22;20161;-52
2021/01/21 16:12:31;;;;;;;4.53;1.40;;;;;;;;;;6388959;22;20222;-47
2021/01/21 16:14:59;;;;;;;4.15;1.30;;;;;;;;;;6393509;22;20206;-50
2021/01/21 16:17:26;;;;;;;3.80;1.65;;;;;;;;;;6394539;22;20207;-52
2021/01/21 16:19:53;;;;;;;14.20;4.63;;;;;;;;;;6392696;22;20224;-52
2021/01/21 16:22:21;;;;;;;10.00;1.77;;;;;;;;;;6393475;22;20396;-59
2021/01/21 16:25:12;;;;;;;8.10;1.90;;;;;;;;;;6394698;22;20157;-59
2021/01/21 16:27:40;;;;;;;20.50;8.25;;;;;;;;;;6392985;22;20243;-53
2021/01/21 16:30:09;;;;;;;8.35;2.80;;;;;;;;;;6393648;22;20232;-53
2021/01/21 16:32:36;;;;;;;4.45;1.80;;;;;;;;;;6393427;22;20181;-51
2021/01/21 16:35:02;;;;;;;7.32;2.13;;;;;;;;;;6393933;22;20215;-56
2021/01/21 16:37:32;;;;;;;5.35;1.50;;;;;;;;;;6393926;22;20162;-56
2021/01/21 16:39:58;;;;;;;10.77;2.13;;;;;;;;;;6394056;22;20168;-51
2021/01/21 16:42:25;;;;;;;10.85;1.85;;;;;;;;;;6394157;22;20181;-58
2021/01/21 16:45:10;;;;;;;5.35;2.30;;;;;;;;;;6392844;22;20165;-54
2021/01/21 16:47:39;;;;;;;5.45;1.65;;;;;;;;;;6394294;22;20185;-53
2021/01/21 16:50:07;;;;;;;6.82;2.22;;;;;;;;;;6394611;22;20177;-59
2021/01/21 16:52:35;;;;;;;3.75;1.60;;;;;;;;;;6394607;22;20164;-53
2021/01/21 16:55:04;;;;;;;6.18;2.15;;;;;;;;;;6394634;22;20197;-51
2021/01/21 16:57:31;;;;;;;8.40;3.47;;;;;;;;;;6394692;22;20257;-57
2021/01/21 16:59:57;;;;;;;9.88;2.40;;;;;;;;;;6394766;22;20237;-55
2021/01/21 17:02:26;;;;;;;5.63;2.22;;;;;;;;;;6394525;22;20188;-50
2021/01/21 17:05:16;;;;;;;7.57;2.58;;;;;;;;;;6394528;22;20157;-55
2021/01/21 17:07:44;;;;;;;8.60;2.63;;;;;;;;;;6393634;22;20209;-49
2021/01/21 17:10:12;;;;;;;11.38;4.43;;;;;;;;;;6395025;22;20188;-54
2021/01/21 17:12:42;;;;;;;8.70;3.40;;;;;;;;;;6394432;22;20179;-48
2021/01/21 17:15:12;;;;;;;10.07;3.65;;;;;;;;;;6394859;22;20190;-57
2021/01/21 17:17:39;;;;;;;4.33;2.47;;;;;;;;;;6394379;22;20326;-52
2021/01/21 17:20:07;;;;;;;8.68;5.03;;;;;;;;;;6394112;22;20444;-51
2021/01/21 17:22:42;;;;;;;9.68;3.20;;;;;;;;;;6394682;22;20169;-50
2021/01/21 17:25:23;;;;;;;8.18;3.33;;;;;;;;;;6394718;22;20196;-50
2021/01/21 17:27:53;;;;;;;7.63;2.65;;;;;;;;;;6397657;22;20258;-57
2021/01/21 17:30:20;;;;;;;11.35;5.95;;;;;;;;;;6397255;22;20166;-56
2021/01/21 17:32:47;;;;;;;12.20;4.65;;;;;;;;;;6396990;22;20176;-55
2021/01/21 17:35:14;;;;;;;15.32;3.95;;;;;;;;;;6397804;22;20181;-56
2021/01/21 17:38:05;;;;;;;5.93;2.60;;;;;;;;;;6397170;22;20234;-55
2021/01/21 17:40:32;;;;;;;16.88;5.30;;;;;;;;;;6397692;22;20162;-53
2021/01/21 17:42:59;;;;;;;14.95;6.97;;;;;;;;;;6396768;22;20176;-54
2021/01/21 17:45:26;;;;;;;8.75;4.50;;;;;;;;;;6396788;22;20165;-52
2021/01/21 17:47:54;;;;;;;23.17;10.93;;;;;;;;;;6397250;22;20166;-55
2021/01/21 17:50:37;;;;;;;13.57;6.38;;;;;;;;;;6396806;22;20175;-54
2021/01/21 17:53:04;;;;;;;9.60;3.13;;;;;;;;;;6395765;22;20202;-54
2021/01/21 17:55:32;;;;;;;6.90;3.53;;;;;;;;;;6396306;22;20198;-57
2021/01/21 17:58:05;;;;;;;15.00;5.05;;;;;;;;;;6396208;22;20201;-50
2021/01/21 18:00:33;;;;;;;14.00;5.68;;;;;;;;;;6397099;22;20176;-50
2021/01/21 18:03:04;;;;;;;10.82;5.90;;;;;;;;;;6397819;22;20330;-59
2021/01/21 18:05:31;;;;;;;16.30;6.45;;;;;;;;;;6396126;22;20181;-51
2021/01/21 18:07:58;;;;;;;7.15;3.70;;;;;;;;;;6396855;22;20164;-54
2021/01/21 18:10:48;;;;;;;10.80;5.75;;;;;;;;;;6396092;22;20220;-53
2021/01/21 18:13:18;;;;;;;11.48;4.38;;;;;;;;;;6396477;22;20168;-51
2021/01/21 18:15:46;;;;;;;10.55;6.13;;;;;;;;;;6396165;22;20266;-55
2021/01/21 18:18:14;;;;;;;11.82;5.88;;;;;;;;;;6396125;22;20188;-51
2021/01/21 18:20:41;;;;;;;9.15;4.80;;;;;;;;;;6394794;22;20211;-50
2021/01/21 18:23:11;;;;;;;18.45;9.65;;;;;;;;;;6396276;22;20195;-58
2021/01/21 18:25:42;;;;;;;10.05;2.90;;;;;;;;;;6396068;22;20190;-56
2021/01/21 18:28:09;;;;;;;7.70;2.55;;;;;;;;;;6394742;22;20244;-57
2021/01/21 18:30:37;;;;;;;7.28;3.60;;;;;;;;;;6395151;22;20198;-55
2021/01/21 18:33:04;;;;;;;7.05;2.85;;;;;;;;;;6395882;22;20206;-54
2021/01/21 18:35:36;;;;;;;11.43;4.35;;;;;;;;;;6395356;22;20199;-57
2021/01/21 18:38:06;;;;;;;5.75;2.63;;;;;;;;;;6394523;22;20203;-52
2021/01/21 18:40:43;;;;;;;8.23;3.28;;;;;;;;;;6395825;22;20204;-47
2021/01/21 18:43:09;;;;;;;5.22;2.33;;;;;;;;;;6396331;22;20234;-52